sensor_id;sensor_type;location;lat;lon;timestamp;temperature;humidity
5286;DHT22;2665;53.112;7.358;2023-03-31T00:01:25;10.40;1.00
5286;DHT22;2665;53.112;7.358;2023-03-31T00:03:51;10.40;1.00
5286;DHT22;2665;53.112;7.358;2023-03-31T00:06:26;10.40;1.00
5286;DHT22;2665;53.112;7.358;2023-03-31T00:08:52;10.50;1.00
5286;DHT22;2665;53.112;7.358;2023-03-31T00:11:19;10.50;1.00
5286;DHT22;2665;53.112;7.358;2023-03-31T00:13:46;10.60;99.90
5286;DHT22;2665;53.112;7.358;2023-03-31T00:16:12;10.70;72.80
5286;DHT22;2665;53.112;7.358;2023-03-31T00:18:37;10.70;1.00
5286;DHT22;2665;53.112;7.358;2023-03-31T00:21:11;10.80;99.90
5286;DHT22;2665;53.112;7.358;2023-03-31T00:23:52;10.80;99.90
5286;DHT22;2665;53.112;7.358;2023-03-31T00:26:18;10.90;99.90
5286;DHT22;2665;53.112;7.358;2023-03-31T00:28:44;10.90;1.00
5286;DHT22;2665;53.112;7.358;2023-03-31T00:31:10;10.90;99.90
5286;DHT22;2665;53.112;7.358;2023-03-31T00:33:35;11.00;99.90
5286;DHT22;2665;53.112;7.358;2023-03-31T00:36:01;11.00;1.00
5286;DHT22;2665;53.112;7.358;2023-03-31T00:38:30;11.00;1.00
5286;DHT22;2665;53.112;7.358;2023-03-31T00:40:56;11.00;1.00
5286;DHT22;2665;53.112;7.358;2023-03-31T00:43:30;11.00;99.90
5286;DHT22;2665;53.112;7.358;2023-03-31T00:46:03;11.00;99.90
5286;DHT22;2665;53.112;7.358;2023-03-31T00:48:33;11.00;65.40
5286;DHT22;2665;53.112;7.358;2023-03-31T00:51:03;11.00;1.00
5286;DHT22;2665;53.112;7.358;2023-03-31T00:53:31;10.90;1.00
5286;DHT22;2665;53.112;7.358;2023-03-31T00:56:05;10.80;1.00
5286;DHT22;2665;53.112;7.358;2023-03-31T00:58:32;10.80;1.00
5286;DHT22;2665;53.112;7.358;2023-03-31T01:01:00;10.70;29.60
5286;DHT22;2665;53.112;7.358;2023-03-31T01:03:29;10.70;31.60
5286;DHT22;2665;53.112;7.358;2023-03-31T01:06:01;10.60;99.90
5286;DHT22;2665;53.112;7.358;2023-03-31T01:08:30;10.50;1.00
5286;DHT22;2665;53.112;7.358;2023-03-31T01:11:00;10.50;1.00
5286;DHT22;2665;53.112;7.358;2023-03-31T01:13:29;10.40;71.40
5286;DHT22;2665;53.112;7.358;2023-03-31T01:15:55;10.40;24.70
5286;DHT22;2665;53.112;7.358;2023-03-31T01:18:21;10.30;1.00
5286;DHT22;2665;53.112;7.358;2023-03-31T01:26:52;10.20;99.90
5286;DHT22;2665;53.112;7.358;2023-03-31T01:38:43;10.00;99.90
5286;DHT22;2665;53.112;7.358;2023-03-31T01:47:36;9.80;1.00
5286;DHT22;2665;53.112;7.358;2023-03-31T01:50:22;9.80;1.00
5286;DHT22;2665;53.112;7.358;2023-03-31T01:56:01;9.80;17.50
5286;DHT22;2665;53.112;7.358;2023-03-31T01:58:41;9.80;1.00
5286;DHT22;2665;53.112;7.358;2023-03-31T02:03:45;9.70;42.10
5286;DHT22;2665;53.112;7.358;2023-03-31T02:06:18;9.70;99.90
5286;DHT22;2665;53.112;7.358;2023-03-31T02:08:50;9.70;1.00
5286;DHT22;2665;53.112;7.358;2023-03-31T02:11:19;9.70;1.00
5286;DHT22;2665;53.112;7.358;2023-03-31T02:13:46;9.70;1.00
5286;DHT22;2665;53.112;7.358;2023-03-31T02:16:16;9.70;47.60
5286;DHT22;2665;53.112;7.358;2023-03-31T02:18:47;9.70;99.90
5286;DHT22;2665;53.112;7.358;2023-03-31T02:21:15;9.70;75.00
5286;DHT22;2665;53.112;7.358;2023-03-31T02:23:41;9.70;99.90
5286;DHT22;2665;53.112;7.358;2023-03-31T02:26:30;9.70;99.90
5286;DHT22;2665;53.112;7.358;2023-03-31T02:28:58;9.70;99.90
5286;DHT22;2665;53.112;7.358;2023-03-31T02:33:58;9.70;99.90
5286;DHT22;2665;53.112;7.358;2023-03-31T02:36:25;9.70;99.90
5286;DHT22;2665;53.112;7.358;2023-03-31T02:39:15;9.70;99.90
5286;DHT22;2665;53.112;7.358;2023-03-31T02:41:40;9.80;99.90
5286;DHT22;2665;53.112;7.358;2023-03-31T02:44:05;9.80;99.90
5286;DHT22;2665;53.112;7.358;2023-03-31T02:46:31;9.80;99.90
5286;DHT22;2665;53.112;7.358;2023-03-31T02:49:00;9.70;99.90
5286;DHT22;2665;53.112;7.358;2023-03-31T02:54:21;9.80;99.90
5286;DHT22;2665;53.112;7.358;2023-03-31T02:57:22;9.80;99.90
5286;DHT22;2665;53.112;7.358;2023-03-31T03:08:45;9.80;99.90
5286;DHT22;2665;53.112;7.358;2023-03-31T03:14:21;9.80;99.90
5286;DHT22;2665;53.112;7.358;2023-03-31T03:17:40;9.80;99.90
5286;DHT22;2665;53.112;7.358;2023-03-31T03:19:51;9.80;99.90
5286;DHT22;2665;53.112;7.358;2023-03-31T03:22:17;9.70;99.90
5286;DHT22;2665;53.112;7.358;2023-03-31T03:24:43;9.70;99.90
5286;DHT22;2665;53.112;7.358;2023-03-31T03:27:09;9.70;99.90
5286;DHT22;2665;53.112;7.358;2023-03-31T03:29:34;9.70;26.90
5286;DHT22;2665;53.112;7.358;2023-03-31T03:32:00;9.70;99.90
5286;DHT22;2665;53.112;7.358;2023-03-31T03:34:26;9.70;99.90
5286;DHT22;2665;53.112;7.358;2023-03-31T03:36:51;9.70;99.90
5286;DHT22;2665;53.112;7.358;2023-03-31T03:39:17;9.70;99.90
5286;DHT22;2665;53.112;7.358;2023-03-31T03:41:42;9.70;99.90
5286;DHT22;2665;53.112;7.358;2023-03-31T03:44:08;9.70;99.90
5286;DHT22;2665;53.112;7.358;2023-03-31T03:46:33;9.70;99.90
5286;DHT22;2665;53.112;7.358;2023-03-31T03:48:59;9.70;99.90
5286;DHT22;2665;53.112;7.358;2023-03-31T03:51:25;9.70;99.90
5286;DHT22;2665;53.112;7.358;2023-03-31T03:53:51;9.70;99.90
5286;DHT22;2665;53.112;7.358;2023-03-31T03:56:16;9.70;99.90
5286;DHT22;2665;53.112;7.358;2023-03-31T03:58:42;9.70;99.90
5286;DHT22;2665;53.112;7.358;2023-03-31T04:01:08;9.70;99.90
5286;DHT22;2665;53.112;7.358;2023-03-31T04:03:33;9.70;99.90
5286;DHT22;2665;53.112;7.358;2023-03-31T04:05:59;9.70;99.90
5286;DHT22;2665;53.112;7.358;2023-03-31T04:08:24;9.60;99.90
5286;DHT22;2665;53.112;7.358;2023-03-31T04:10:50;9.70;99.90
5286;DHT22;2665;53.112;7.358;2023-03-31T04:13:17;9.70;99.90
5286;DHT22;2665;53.112;7.358;2023-03-31T04:15:42;9.70;99.90
5286;DHT22;2665;53.112;7.358;2023-03-31T04:18:09;9.70;99.90
5286;DHT22;2665;53.112;7.358;2023-03-31T04:20:36;9.70;99.90
5286;DHT22;2665;53.112;7.358;2023-03-31T04:23:03;9.70;99.90
5286;DHT22;2665;53.112;7.358;2023-03-31T04:25:30;9.80;99.90
5286;DHT22;2665;53.112;7.358;2023-03-31T04:27:55;9.80;99.90
5286;DHT22;2665;53.112;7.358;2023-03-31T04:30:22;9.80;99.90
5286;DHT22;2665;53.112;7.358;2023-03-31T04:32:54;9.80;99.90
5286;DHT22;2665;53.112;7.358;2023-03-31T04:35:21;9.80;99.90
5286;DHT22;2665;53.112;7.358;2023-03-31T04:37:48;9.80;75.20
5286;DHT22;2665;53.112;7.358;2023-03-31T04:40:15;9.80;79.80
5286;DHT22;2665;53.112;7.358;2023-03-31T04:42:42;9.90;99.90
5286;DHT22;2665;53.112;7.358;2023-03-31T04:45:08;9.90;85.40
5286;DHT22;2665;53.112;7.358;2023-03-31T04:47:34;9.90;99.90
5286;DHT22;2665;53.112;7.358;2023-03-31T04:50:00;9.90;99.90
5286;DHT22;2665;53.112;7.358;2023-03-31T04:52:25;9.90;99.90
5286;DHT22;2665;53.112;7.358;2023-03-31T04:54:51;9.90;99.90
5286;DHT22;2665;53.112;7.358;2023-03-31T04:57:16;9.90;99.90
5286;DHT22;2665;53.112;7.358;2023-03-31T04:59:42;9.80;99.90
5286;DHT22;2665;53.112;7.358;2023-03-31T05:02:08;9.80;99.90
5286;DHT22;2665;53.112;7.358;2023-03-31T05:04:33;9.80;99.90
5286;DHT22;2665;53.112;7.358;2023-03-31T05:06:59;9.80;99.90
5286;DHT22;2665;53.112;7.358;2023-03-31T05:09:24;9.70;99.90
5286;DHT22;2665;53.112;7.358;2023-03-31T05:11:50;9.70;99.90
5286;DHT22;2665;53.112;7.358;2023-03-31T05:14:16;9.70;1.00
5286;DHT22;2665;53.112;7.358;2023-03-31T05:16:41;9.70;99.90
5286;DHT22;2665;53.112;7.358;2023-03-31T05:19:07;9.60;1.00
5286;DHT22;2665;53.112;7.358;2023-03-31T05:21:33;9.60;1.00
5286;DHT22;2665;53.112;7.358;2023-03-31T05:23:58;9.70;1.00
5286;DHT22;2665;53.112;7.358;2023-03-31T05:26:25;9.70;1.00
5286;DHT22;2665;53.112;7.358;2023-03-31T05:28:51;9.70;1.00
5286;DHT22;2665;53.112;7.358;2023-03-31T05:31:17;9.60;1.00
5286;DHT22;2665;53.112;7.358;2023-03-31T05:33:43;9.70;1.00
5286;DHT22;2665;53.112;7.358;2023-03-31T05:36:10;9.70;1.00
5286;DHT22;2665;53.112;7.358;2023-03-31T05:38:37;9.70;1.00
5286;DHT22;2665;53.112;7.358;2023-03-31T05:41:02;9.70;1.00
5286;DHT22;2665;53.112;7.358;2023-03-31T05:43:28;9.70;1.00
5286;DHT22;2665;53.112;7.358;2023-03-31T05:45:54;9.70;1.00
5286;DHT22;2665;53.112;7.358;2023-03-31T05:48:19;9.70;1.00
5286;DHT22;2665;53.112;7.358;2023-03-31T05:50:46;9.80;1.00
5286;DHT22;2665;53.112;7.358;2023-03-31T05:53:11;9.80;1.00
5286;DHT22;2665;53.112;7.358;2023-03-31T05:55:38;9.70;1.00
5286;DHT22;2665;53.112;7.358;2023-03-31T05:58:03;9.70;1.00
5286;DHT22;2665;53.112;7.358;2023-03-31T06:00:29;9.80;1.00
5286;DHT22;2665;53.112;7.358;2023-03-31T06:02:55;9.80;1.00
5286;DHT22;2665;53.112;7.358;2023-03-31T06:05:22;9.80;1.00
5286;DHT22;2665;53.112;7.358;2023-03-31T06:07:51;9.80;1.00
5286;DHT22;2665;53.112;7.358;2023-03-31T06:10:18;9.80;1.00
5286;DHT22;2665;53.112;7.358;2023-03-31T06:12:44;9.80;1.00
5286;DHT22;2665;53.112;7.358;2023-03-31T06:15:10;9.80;1.00
5286;DHT22;2665;53.112;7.358;2023-03-31T06:17:35;9.70;1.00
5286;DHT22;2665;53.112;7.358;2023-03-31T06:20:01;9.70;1.00
5286;DHT22;2665;53.112;7.358;2023-03-31T06:22:28;9.70;1.00
5286;DHT22;2665;53.112;7.358;2023-03-31T06:24:54;9.70;1.00
5286;DHT22;2665;53.112;7.358;2023-03-31T06:27:20;9.80;1.00
5286;DHT22;2665;53.112;7.358;2023-03-31T06:29:45;9.80;1.00
5286;DHT22;2665;53.112;7.358;2023-03-31T06:32:11;9.80;1.00
5286;DHT22;2665;53.112;7.358;2023-03-31T06:34:37;9.80;1.00
5286;DHT22;2665;53.112;7.358;2023-03-31T06:37:02;9.80;1.00
5286;DHT22;2665;53.112;7.358;2023-03-31T06:39:28;9.90;1.00
5286;DHT22;2665;53.112;7.358;2023-03-31T06:41:53;9.90;1.00
5286;DHT22;2665;53.112;7.358;2023-03-31T06:44:19;9.90;1.00
5286;DHT22;2665;53.112;7.358;2023-03-31T06:46:47;10.00;1.00
5286;DHT22;2665;53.112;7.358;2023-03-31T06:49:13;10.00;1.00
5286;DHT22;2665;53.112;7.358;2023-03-31T06:51:39;10.00;1.00
5286;DHT22;2665;53.112;7.358;2023-03-31T06:54:04;10.00;1.00
5286;DHT22;2665;53.112;7.358;2023-03-31T06:56:30;10.00;1.00
5286;DHT22;2665;53.112;7.358;2023-03-31T06:58:56;10.10;1.00
5286;DHT22;2665;53.112;7.358;2023-03-31T07:01:22;10.10;1.00
5286;DHT22;2665;53.112;7.358;2023-03-31T07:03:47;10.10;1.00
5286;DHT22;2665;53.112;7.358;2023-03-31T07:06:13;10.10;1.00
5286;DHT22;2665;53.112;7.358;2023-03-31T07:08:39;10.10;1.00
5286;DHT22;2665;53.112;7.358;2023-03-31T07:11:04;10.10;1.00
5286;DHT22;2665;53.112;7.358;2023-03-31T07:13:30;10.10;1.00
5286;DHT22;2665;53.112;7.358;2023-03-31T07:15:56;10.10;1.00
5286;DHT22;2665;53.112;7.358;2023-03-31T07:18:22;10.10;1.00
5286;DHT22;2665;53.112;7.358;2023-03-31T07:20:56;10.10;1.00
5286;DHT22;2665;53.112;7.358;2023-03-31T07:23:22;10.10;1.00
5286;DHT22;2665;53.112;7.358;2023-03-31T07:25:47;10.10;1.00
5286;DHT22;2665;53.112;7.358;2023-03-31T07:28:13;10.20;1.00
5286;DHT22;2665;53.112;7.358;2023-03-31T07:30:39;10.20;1.00
5286;DHT22;2665;53.112;7.358;2023-03-31T07:33:05;10.20;1.00
5286;DHT22;2665;53.112;7.358;2023-03-31T07:35:31;10.10;1.00
5286;DHT22;2665;53.112;7.358;2023-03-31T07:37:57;10.20;1.00
5286;DHT22;2665;53.112;7.358;2023-03-31T07:40:26;10.20;1.00
5286;DHT22;2665;53.112;7.358;2023-03-31T07:42:52;10.20;1.00
5286;DHT22;2665;53.112;7.358;2023-03-31T07:45:20;10.20;1.00
5286;DHT22;2665;53.112;7.358;2023-03-31T07:47:46;10.20;1.00
5286;DHT22;2665;53.112;7.358;2023-03-31T07:50:14;10.30;1.00
5286;DHT22;2665;53.112;7.358;2023-03-31T07:52:40;10.30;1.00
5286;DHT22;2665;53.112;7.358;2023-03-31T07:55:06;10.30;1.00
5286;DHT22;2665;53.112;7.358;2023-03-31T07:57:33;10.30;1.00
5286;DHT22;2665;53.112;7.358;2023-03-31T07:59:59;10.30;1.00
5286;DHT22;2665;53.112;7.358;2023-03-31T08:02:25;10.30;1.00
5286;DHT22;2665;53.112;7.358;2023-03-31T08:04:50;10.30;1.00
5286;DHT22;2665;53.112;7.358;2023-03-31T08:07:16;10.30;1.00
5286;DHT22;2665;53.112;7.358;2023-03-31T08:09:44;10.30;1.00
5286;DHT22;2665;53.112;7.358;2023-03-31T08:12:11;10.40;1.00
5286;DHT22;2665;53.112;7.358;2023-03-31T08:14:38;10.40;1.00
5286;DHT22;2665;53.112;7.358;2023-03-31T08:17:04;10.40;1.00
5286;DHT22;2665;53.112;7.358;2023-03-31T08:19:29;10.40;1.00
5286;DHT22;2665;53.112;7.358;2023-03-31T08:21:56;10.50;1.00
5286;DHT22;2665;53.112;7.358;2023-03-31T08:24:22;10.50;1.00
5286;DHT22;2665;53.112;7.358;2023-03-31T08:26:47;10.50;1.00
5286;DHT22;2665;53.112;7.358;2023-03-31T08:29:13;10.50;1.00
5286;DHT22;2665;53.112;7.358;2023-03-31T08:31:39;10.60;1.00
5286;DHT22;2665;53.112;7.358;2023-03-31T08:34:05;10.60;1.00
5286;DHT22;2665;53.112;7.358;2023-03-31T08:36:31;10.60;1.00
5286;DHT22;2665;53.112;7.358;2023-03-31T08:38:57;10.70;1.00
5286;DHT22;2665;53.112;7.358;2023-03-31T08:44:09;10.70;1.00
5286;DHT22;2665;53.112;7.358;2023-03-31T08:46:36;10.70;1.00
5286;DHT22;2665;53.112;7.358;2023-03-31T08:49:03;10.70;1.00
5286;DHT22;2665;53.112;7.358;2023-03-31T08:51:41;10.80;1.00
5286;DHT22;2665;53.112;7.358;2023-03-31T08:56:40;10.80;1.00
5286;DHT22;2665;53.112;7.358;2023-03-31T08:59:18;10.80;1.00
5286;DHT22;2665;53.112;7.358;2023-03-31T09:02:03;10.70;1.00
5286;DHT22;2665;53.112;7.358;2023-03-31T09:04:49;10.80;99.90
5286;DHT22;2665;53.112;7.358;2023-03-31T09:13:11;11.00;99.90
5286;DHT22;2665;53.112;7.358;2023-03-31T09:15:47;11.10;99.90
5286;DHT22;2665;53.112;7.358;2023-03-31T09:20:51;11.20;99.90
5286;DHT22;2665;53.112;7.358;2023-03-31T09:23:34;11.20;99.90
5286;DHT22;2665;53.112;7.358;2023-03-31T09:26:02;11.30;99.90
5286;DHT22;2665;53.112;7.358;2023-03-31T09:28:34;11.30;99.90
5286;DHT22;2665;53.112;7.358;2023-03-31T09:31:10;11.40;99.90
5286;DHT22;2665;53.112;7.358;2023-03-31T09:33:43;11.40;74.80
5286;DHT22;2665;53.112;7.358;2023-03-31T09:36:20;11.40;26.70
5286;DHT22;2665;53.112;7.358;2023-03-31T09:38:48;11.50;38.80
5286;DHT22;2665;53.112;7.358;2023-03-31T09:41:15;11.50;1.00
5286;DHT22;2665;53.112;7.358;2023-03-31T09:43:41;11.60;1.00
5286;DHT22;2665;53.112;7.358;2023-03-31T09:46:30;11.60;1.00
5286;DHT22;2665;53.112;7.358;2023-03-31T09:49:03;11.60;99.90
5286;DHT22;2665;53.112;7.358;2023-03-31T09:51:33;11.60;99.90
5286;DHT22;2665;53.112;7.358;2023-03-31T09:54:24;11.60;42.70
5286;DHT22;2665;53.112;7.358;2023-03-31T09:56:54;11.60;1.00
5286;DHT22;2665;53.112;7.358;2023-03-31T09:59:31;11.70;1.00
5286;DHT22;2665;53.112;7.358;2023-03-31T10:02:01;11.70;1.00
5286;DHT22;2665;53.112;7.358;2023-03-31T10:04:32;11.60;1.00
5286;DHT22;2665;53.112;7.358;2023-03-31T10:07:00;11.60;1.00
5286;DHT22;2665;53.112;7.358;2023-03-31T10:09:28;11.60;1.00
5286;DHT22;2665;53.112;7.358;2023-03-31T10:12:07;11.60;99.90
5286;DHT22;2665;53.112;7.358;2023-03-31T10:14:44;11.50;99.90
5286;DHT22;2665;53.112;7.358;2023-03-31T10:17:21;11.40;1.00
5286;DHT22;2665;53.112;7.358;2023-03-31T10:19:58;11.40;1.00
5286;DHT22;2665;53.112;7.358;2023-03-31T10:22:28;11.30;1.00
5286;DHT22;2665;53.112;7.358;2023-03-31T10:24:54;11.30;99.90
5286;DHT22;2665;53.112;7.358;2023-03-31T10:27:31;11.30;99.90
5286;DHT22;2665;53.112;7.358;2023-03-31T10:30:03;11.40;99.90
5286;DHT22;2665;53.112;7.358;2023-03-31T10:32:29;11.40;99.90
5286;DHT22;2665;53.112;7.358;2023-03-31T10:34:58;11.40;99.90
5286;DHT22;2665;53.112;7.358;2023-03-31T10:37:28;11.40;99.90
5286;DHT22;2665;53.112;7.358;2023-03-31T10:40:00;11.40;99.90
5286;DHT22;2665;53.112;7.358;2023-03-31T10:42:28;11.30;1.00
5286;DHT22;2665;53.112;7.358;2023-03-31T10:47:39;11.00;1.00
5286;DHT22;2665;53.112;7.358;2023-03-31T10:50:30;10.90;99.90
5286;DHT22;2665;53.112;7.358;2023-03-31T10:53:25;10.80;1.00
5286;DHT22;2665;53.112;7.358;2023-03-31T11:01:10;11.00;99.90
5286;DHT22;2665;53.112;7.358;2023-03-31T11:04:04;11.10;99.90
5286;DHT22;2665;53.112;7.358;2023-03-31T11:12:02;11.20;99.90
5286;DHT22;2665;53.112;7.358;2023-03-31T11:15:07;11.20;99.90
5286;DHT22;2665;53.112;7.358;2023-03-31T11:21:17;11.20;99.90
5286;DHT22;2665;53.112;7.358;2023-03-31T11:23:38;11.20;99.90
5286;DHT22;2665;53.112;7.358;2023-03-31T11:26:10;11.10;99.90
5286;DHT22;2665;53.112;7.358;2023-03-31T11:28:48;11.10;99.90
5286;DHT22;2665;53.112;7.358;2023-03-31T11:37:39;11.60;1.00
5286;DHT22;2665;53.112;7.358;2023-03-31T11:43:05;11.70;99.90
5286;DHT22;2665;53.112;7.358;2023-03-31T11:45:43;11.90;99.90
5286;DHT22;2665;53.112;7.358;2023-03-31T11:49:00;12.00;99.90
5286;DHT22;2665;53.112;7.358;2023-03-31T11:51:16;12.00;99.90
5286;DHT22;2665;53.112;7.358;2023-03-31T11:53:44;12.10;99.90
5286;DHT22;2665;53.112;7.358;2023-03-31T11:56:11;12.30;99.90
5286;DHT22;2665;53.112;7.358;2023-03-31T11:58:46;12.60;99.90
5286;DHT22;2665;53.112;7.358;2023-03-31T12:01:22;13.00;99.90
5286;DHT22;2665;53.112;7.358;2023-03-31T12:04:08;12.90;99.90
5286;DHT22;2665;53.112;7.358;2023-03-31T12:06:40;12.80;4.80
5286;DHT22;2665;53.112;7.358;2023-03-31T12:09:24;13.00;53.60
5286;DHT22;2665;53.112;7.358;2023-03-31T12:12:00;13.20;1.00
5286;DHT22;2665;53.112;7.358;2023-03-31T12:14:34;13.30;1.00
5286;DHT22;2665;53.112;7.358;2023-03-31T12:17:18;13.20;1.00
5286;DHT22;2665;53.112;7.358;2023-03-31T12:22:34;13.10;1.00
5286;DHT22;2665;53.112;7.358;2023-03-31T12:25:02;12.90;98.30
5286;DHT22;2665;53.112;7.358;2023-03-31T12:27:40;12.80;99.90
5286;DHT22;2665;53.112;7.358;2023-03-31T12:30:11;12.70;1.00
5286;DHT22;2665;53.112;7.358;2023-03-31T12:32:55;12.80;99.90
5286;DHT22;2665;53.112;7.358;2023-03-31T12:47:01;12.80;1.00
5286;DHT22;2665;53.112;7.358;2023-03-31T12:52:47;13.10;1.00
5286;DHT22;2665;53.112;7.358;2023-03-31T12:57:34;13.40;1.00
5286;DHT22;2665;53.112;7.358;2023-03-31T13:02:45;13.60;1.00
5286;DHT22;2665;53.112;7.358;2023-03-31T13:08:09;13.60;1.00
5286;DHT22;2665;53.112;7.358;2023-03-31T13:10:57;14.10;99.90
5286;DHT22;2665;53.112;7.358;2023-03-31T13:13:24;14.30;1.00
5286;DHT22;2665;53.112;7.358;2023-03-31T13:15:55;14.60;99.90
5286;DHT22;2665;53.112;7.358;2023-03-31T13:18:21;14.70;1.00
5286;DHT22;2665;53.112;7.358;2023-03-31T13:20:58;14.70;99.90
5286;DHT22;2665;53.112;7.358;2023-03-31T13:23:24;15.00;1.00
5286;DHT22;2665;53.112;7.358;2023-03-31T13:25:52;15.30;1.00
5286;DHT22;2665;53.112;7.358;2023-03-31T13:31:32;16.10;1.00
5286;DHT22;2665;53.112;7.358;2023-03-31T13:33:58;15.70;1.00
5286;DHT22;2665;53.112;7.358;2023-03-31T13:36:45;15.20;1.00
5286;DHT22;2665;53.112;7.358;2023-03-31T13:39:41;14.80;56.10
5286;DHT22;2665;53.112;7.358;2023-03-31T13:50:35;15.30;57.00
5286;DHT22;2665;53.112;7.358;2023-03-31T13:59:13;16.00;1.00
5286;DHT22;2665;53.112;7.358;2023-03-31T14:05:35;15.30;1.00
5286;DHT22;2665;53.112;7.358;2023-03-31T14:08:19;14.70;1.00
5286;DHT22;2665;53.112;7.358;2023-03-31T14:10:49;14.30;1.00
5286;DHT22;2665;53.112;7.358;2023-03-31T14:13:16;14.00;99.90
5286;DHT22;2665;53.112;7.358;2023-03-31T14:18:36;13.50;1.00
5286;DHT22;2665;53.112;7.358;2023-03-31T14:33:28;13.10;1.00
5286;DHT22;2665;53.112;7.358;2023-03-31T14:35:40;13.20;1.00
5286;DHT22;2665;53.112;7.358;2023-03-31T14:38:16;13.20;1.00
5286;DHT22;2665;53.112;7.358;2023-03-31T14:40:46;13.30;1.00
5286;DHT22;2665;53.112;7.358;2023-03-31T14:43:27;13.30;99.90
5286;DHT22;2665;53.112;7.358;2023-03-31T14:46:20;13.50;1.00
5286;DHT22;2665;53.112;7.358;2023-03-31T14:48:50;13.70;1.00
5286;DHT22;2665;53.112;7.358;2023-03-31T14:51:23;13.80;1.00
5286;DHT22;2665;53.112;7.358;2023-03-31T14:53:58;13.90;1.00
5286;DHT22;2665;53.112;7.358;2023-03-31T14:56:32;13.90;98.20
5286;DHT22;2665;53.112;7.358;2023-03-31T14:59:01;13.80;1.00
5286;DHT22;2665;53.112;7.358;2023-03-31T15:01:29;13.50;1.00
5286;DHT22;2665;53.112;7.358;2023-03-31T15:03:59;13.30;1.00
5286;DHT22;2665;53.112;7.358;2023-03-31T15:06:25;13.20;99.90
5286;DHT22;2665;53.112;7.358;2023-03-31T15:08:54;13.10;1.00
5286;DHT22;2665;53.112;7.358;2023-03-31T15:11:22;13.00;1.00
5286;DHT22;2665;53.112;7.358;2023-03-31T15:13:51;12.90;99.90
5286;DHT22;2665;53.112;7.358;2023-03-31T15:18:57;12.60;1.00
5286;DHT22;2665;53.112;7.358;2023-03-31T15:21:25;12.60;99.90
5286;DHT22;2665;53.112;7.358;2023-03-31T15:23:54;12.50;99.90
5286;DHT22;2665;53.112;7.358;2023-03-31T15:26:25;12.00;99.90
5286;DHT22;2665;53.112;7.358;2023-03-31T15:28:56;11.60;99.90
5286;DHT22;2665;53.112;7.358;2023-03-31T15:31:22;11.30;99.90
5286;DHT22;2665;53.112;7.358;2023-03-31T15:33:52;11.10;99.90
5286;DHT22;2665;53.112;7.358;2023-03-31T15:36:19;10.90;1.00
5286;DHT22;2665;53.112;7.358;2023-03-31T15:38:46;10.80;41.60
5286;DHT22;2665;53.112;7.358;2023-03-31T15:41:16;10.80;99.90
5286;DHT22;2665;53.112;7.358;2023-03-31T15:46:19;10.80;1.00
5286;DHT22;2665;53.112;7.358;2023-03-31T15:48:51;10.80;1.00
5286;DHT22;2665;53.112;7.358;2023-03-31T15:51:46;10.80;1.00
5286;DHT22;2665;53.112;7.358;2023-03-31T15:54:48;10.90;1.00
5286;DHT22;2665;53.112;7.358;2023-03-31T15:57:15;11.00;1.00
5286;DHT22;2665;53.112;7.358;2023-03-31T15:59:50;11.10;1.00
5286;DHT22;2665;53.112;7.358;2023-03-31T16:02:42;11.30;99.90
5286;DHT22;2665;53.112;7.358;2023-03-31T16:05:53;11.40;99.90
5286;DHT22;2665;53.112;7.358;2023-03-31T16:08:28;11.70;78.60
5286;DHT22;2665;53.112;7.358;2023-03-31T16:11:03;11.70;99.90
5286;DHT22;2665;53.112;7.358;2023-03-31T16:13:33;11.70;1.00
5286;DHT22;2665;53.112;7.358;2023-03-31T16:15:59;11.70;1.00
5286;DHT22;2665;53.112;7.358;2023-03-31T16:18:35;11.70;99.90
5286;DHT22;2665;53.112;7.358;2023-03-31T16:21:04;11.70;99.90
5286;DHT22;2665;53.112;7.358;2023-03-31T16:23:31;11.70;93.50
5286;DHT22;2665;53.112;7.358;2023-03-31T16:25:59;11.70;99.90
5286;DHT22;2665;53.112;7.358;2023-03-31T16:28:28;11.70;1.00
5286;DHT22;2665;53.112;7.358;2023-03-31T16:30:55;11.60;1.20
5286;DHT22;2665;53.112;7.358;2023-03-31T16:33:23;11.60;1.00
5286;DHT22;2665;53.112;7.358;2023-03-31T16:35:51;11.60;1.00
5286;DHT22;2665;53.112;7.358;2023-03-31T16:38:19;11.50;1.00
5286;DHT22;2665;53.112;7.358;2023-03-31T16:40:48;11.60;1.00
5286;DHT22;2665;53.112;7.358;2023-03-31T16:43:15;11.50;1.00
5286;DHT22;2665;53.112;7.358;2023-03-31T16:45:46;11.50;1.00
5286;DHT22;2665;53.112;7.358;2023-03-31T16:48:13;11.50;1.00
5286;DHT22;2665;53.112;7.358;2023-03-31T16:50:40;11.40;1.00
5286;DHT22;2665;53.112;7.358;2023-03-31T16:53:06;11.40;3.90
5286;DHT22;2665;53.112;7.358;2023-03-31T16:55:33;11.40;1.00
5286;DHT22;2665;53.112;7.358;2023-03-31T16:57:59;11.40;1.00
5286;DHT22;2665;53.112;7.358;2023-03-31T17:00:30;11.30;3.90
5286;DHT22;2665;53.112;7.358;2023-03-31T17:02:56;11.30;99.90
5286;DHT22;2665;53.112;7.358;2023-03-31T17:05:23;11.30;99.90
5286;DHT22;2665;53.112;7.358;2023-03-31T17:07:50;11.20;1.00
5286;DHT22;2665;53.112;7.358;2023-03-31T17:10:15;11.20;1.00
5286;DHT22;2665;53.112;7.358;2023-03-31T17:12:41;11.20;1.00
5286;DHT22;2665;53.112;7.358;2023-03-31T17:15:07;11.20;1.00
5286;DHT22;2665;53.112;7.358;2023-03-31T17:17:33;11.10;99.90
5286;DHT22;2665;53.112;7.358;2023-03-31T17:19:59;11.10;99.90
5286;DHT22;2665;53.112;7.358;2023-03-31T17:22:25;11.10;99.90
5286;DHT22;2665;53.112;7.358;2023-03-31T17:24:50;11.10;99.90
5286;DHT22;2665;53.112;7.358;2023-03-31T17:27:26;11.10;1.00
5286;DHT22;2665;53.112;7.358;2023-03-31T17:29:52;11.10;1.00
5286;DHT22;2665;53.112;7.358;2023-03-31T17:32:18;11.10;1.00
5286;DHT22;2665;53.112;7.358;2023-03-31T17:34:44;11.10;1.00
5286;DHT22;2665;53.112;7.358;2023-03-31T17:37:12;11.00;1.00
5286;DHT22;2665;53.112;7.358;2023-03-31T17:39:38;11.00;99.90
5286;DHT22;2665;53.112;7.358;2023-03-31T17:42:03;10.90;99.90
5286;DHT22;2665;53.112;7.358;2023-03-31T17:44:29;10.90;99.90
5286;DHT22;2665;53.112;7.358;2023-03-31T17:46:55;10.90;1.00
5286;DHT22;2665;53.112;7.358;2023-03-31T17:49:22;10.80;1.00
5286;DHT22;2665;53.112;7.358;2023-03-31T17:51:48;10.80;1.00
5286;DHT22;2665;53.112;7.358;2023-03-31T17:54:14;10.80;1.00
5286;DHT22;2665;53.112;7.358;2023-03-31T17:56:39;10.80;1.00
5286;DHT22;2665;53.112;7.358;2023-03-31T17:59:06;10.80;1.00
5286;DHT22;2665;53.112;7.358;2023-03-31T18:01:32;10.70;1.00
5286;DHT22;2665;53.112;7.358;2023-03-31T18:03:57;10.70;1.00
5286;DHT22;2665;53.112;7.358;2023-03-31T18:06:23;10.70;1.00
5286;DHT22;2665;53.112;7.358;2023-03-31T18:08:53;10.70;1.00
5286;DHT22;2665;53.112;7.358;2023-03-31T18:11:20;10.70;1.00
5286;DHT22;2665;53.112;7.358;2023-03-31T18:13:46;10.70;24.80
5286;DHT22;2665;53.112;7.358;2023-03-31T18:16:12;10.60;1.00
5286;DHT22;2665;53.112;7.358;2023-03-31T18:18:37;10.70;52.00
5286;DHT22;2665;53.112;7.358;2023-03-31T18:21:08;10.70;88.10
5286;DHT22;2665;53.112;7.358;2023-03-31T18:23:34;10.70;99.90
5286;DHT22;2665;53.112;7.358;2023-03-31T18:26:01;10.70;99.90
5286;DHT22;2665;53.112;7.358;2023-03-31T18:28:26;10.70;99.90
5286;DHT22;2665;53.112;7.358;2023-03-31T18:30:53;10.70;99.90
5286;DHT22;2665;53.112;7.358;2023-03-31T18:33:19;10.70;99.90
5286;DHT22;2665;53.112;7.358;2023-03-31T18:35:45;10.70;99.90
5286;DHT22;2665;53.112;7.358;2023-03-31T18:38:14;10.60;94.20
5286;DHT22;2665;53.112;7.358;2023-03-31T18:40:47;10.60;99.90
5286;DHT22;2665;53.112;7.358;2023-03-31T18:43:14;10.60;99.90
5286;DHT22;2665;53.112;7.358;2023-03-31T18:45:39;10.60;99.90
5286;DHT22;2665;53.112;7.358;2023-03-31T18:48:06;10.60;99.90
5286;DHT22;2665;53.112;7.358;2023-03-31T18:50:32;10.60;99.90
5286;DHT22;2665;53.112;7.358;2023-03-31T18:52:57;10.60;91.60
5286;DHT22;2665;53.112;7.358;2023-03-31T18:55:23;10.60;46.80
5286;DHT22;2665;53.112;7.358;2023-03-31T18:57:49;10.60;25.90
5286;DHT22;2665;53.112;7.358;2023-03-31T19:00:14;10.60;15.00
5286;DHT22;2665;53.112;7.358;2023-03-31T19:02:41;10.50;35.70